sensor_id;sensor_type;location;lat;lon;timestamp;P1;durP1;ratioP1;P2;durP2;ratioP2
5813;SDS011;2933;52.302;8.134;2023-07-20T00:00:48;1.23;;;1.20;;
5813;SDS011;2933;52.302;8.134;2023-07-20T00:05:51;2.03;;;1.40;;
5813;SDS011;2933;52.302;8.134;2023-07-20T00:10:53;1.50;;;1.10;;
5813;SDS011;2933;52.302;8.134;2023-07-20T00:15:54;1.67;;;1.00;;
5813;SDS011;2933;52.302;8.134;2023-07-20T00:20:57;1.63;;;1.20;;
5813;SDS011;2933;52.302;8.134;2023-07-20T00:25:59;1.10;;;1.10;;
5813;SDS011;2933;52.302;8.134;2023-07-20T00:31:01;0.90;;;0.90;;
5813;SDS011;2933;52.302;8.134;2023-07-20T00:36:04;1.07;;;0.97;;
5813;SDS011;2933;52.302;8.134;2023-07-20T00:41:06;1.43;;;1.00;;
5813;SDS011;2933;52.302;8.134;2023-07-20T00:46:07;0.80;;;0.80;;
5813;SDS011;2933;52.302;8.134;2023-07-20T00:51:11;1.20;;;0.90;;
5813;SDS011;2933;52.302;8.134;2023-07-20T00:56:12;2.30;;;0.90;;
5813;SDS011;2933;52.302;8.134;2023-07-20T01:01:14;1.00;;;1.00;;
5813;SDS011;2933;52.302;8.134;2023-07-20T01:06:18;0.87;;;0.87;;
5813;SDS011;2933;52.302;8.134;2023-07-20T01:11:28;2.70;;;1.17;;
5813;SDS011;2933;52.302;8.134;2023-07-20T01:16:37;4.50;;;1.47;;
5813;SDS011;2933;52.302;8.134;2023-07-20T01:21:41;1.33;;;1.23;;
5813;SDS011;2933;52.302;8.134;2023-07-20T01:26:57;1.70;;;1.60;;
5813;SDS011;2933;52.302;8.134;2023-07-20T01:32:12;1.70;;;1.60;;
5813;SDS011;2933;52.302;8.134;2023-07-20T01:37:16;2.70;;;1.27;;
5813;SDS011;2933;52.302;8.134;2023-07-20T01:42:20;1.70;;;1.20;;
5813;SDS011;2933;52.302;8.134;2023-07-20T01:47:24;1.20;;;1.20;;
5813;SDS011;2933;52.302;8.134;2023-07-20T01:52:25;3.03;;;1.80;;
5813;SDS011;2933;52.302;8.134;2023-07-20T01:57:27;4.30;;;2.50;;
5813;SDS011;2933;52.302;8.134;2023-07-20T02:02:30;2.67;;;2.57;;
5813;SDS011;2933;52.302;8.134;2023-07-20T02:07:31;2.30;;;2.20;;
5813;SDS011;2933;52.302;8.134;2023-07-20T02:12:33;2.83;;;2.47;;
5813;SDS011;2933;52.302;8.134;2023-07-20T02:17:36;3.67;;;2.30;;
5813;SDS011;2933;52.302;8.134;2023-07-20T02:22:37;2.87;;;2.60;;
5813;SDS011;2933;52.302;8.134;2023-07-20T02:27:39;3.00;;;2.80;;
5813;SDS011;2933;52.302;8.134;2023-07-20T02:32:42;3.23;;;3.00;;
5813;SDS011;2933;52.302;8.134;2023-07-20T02:37:45;4.10;;;3.80;;
5813;SDS011;2933;52.302;8.134;2023-07-20T02:42:47;4.23;;;3.93;;
5813;SDS011;2933;52.302;8.134;2023-07-20T02:47:50;4.20;;;3.80;;
5813;SDS011;2933;52.302;8.134;2023-07-20T02:52:51;3.17;;;3.07;;
5813;SDS011;2933;52.302;8.134;2023-07-20T02:57:53;4.23;;;3.93;;
5813;SDS011;2933;52.302;8.134;2023-07-20T03:02:56;5.87;;;3.67;;
5813;SDS011;2933;52.302;8.134;2023-07-20T03:07:57;4.07;;;3.83;;
5813;SDS011;2933;52.302;8.134;2023-07-20T03:13:03;3.53;;;3.30;;
5813;SDS011;2933;52.302;8.134;2023-07-20T03:18:06;4.33;;;3.97;;
5813;SDS011;2933;52.302;8.134;2023-07-20T03:23:07;4.00;;;3.13;;
5813;SDS011;2933;52.302;8.134;2023-07-20T03:28:09;3.93;;;3.63;;
5813;SDS011;2933;52.302;8.134;2023-07-20T03:33:12;3.60;;;3.40;;
5813;SDS011;2933;52.302;8.134;2023-07-20T03:38:13;6.33;;;3.60;;
5813;SDS011;2933;52.302;8.134;2023-07-20T03:43:14;3.83;;;3.57;;
5813;SDS011;2933;52.302;8.134;2023-07-20T03:48:18;4.13;;;3.83;;
5813;SDS011;2933;52.302;8.134;2023-07-20T03:53:21;4.67;;;4.37;;
5813;SDS011;2933;52.302;8.134;2023-07-20T03:58:23;6.00;;;3.60;;
5813;SDS011;2933;52.302;8.134;2023-07-20T04:03:26;3.23;;;3.03;;
5813;SDS011;2933;52.302;8.134;2023-07-20T04:08:27;4.03;;;2.60;;
5813;SDS011;2933;52.302;8.134;2023-07-20T04:13:29;2.20;;;2.10;;
5813;SDS011;2933;52.302;8.134;2023-07-20T04:18:34;2.30;;;2.20;;
5813;SDS011;2933;52.302;8.134;2023-07-20T04:23:36;2.43;;;2.20;;
5813;SDS011;2933;52.302;8.134;2023-07-20T04:28:37;4.60;;;2.73;;
5813;SDS011;2933;52.302;8.134;2023-07-20T04:33:41;2.33;;;2.23;;
5813;SDS011;2933;52.302;8.134;2023-07-20T04:38:43;2.33;;;2.23;;
5813;SDS011;2933;52.302;8.134;2023-07-20T04:43:44;3.23;;;2.50;;
5813;SDS011;2933;52.302;8.134;2023-07-20T04:48:47;2.90;;;2.70;;
5813;SDS011;2933;52.302;8.134;2023-07-20T04:53:49;2.27;;;2.17;;
5813;SDS011;2933;52.302;8.134;2023-07-20T04:58:50;2.80;;;2.70;;
5813;SDS011;2933;52.302;8.134;2023-07-20T05:03:53;3.37;;;3.00;;
5813;SDS011;2933;52.302;8.134;2023-07-20T05:08:55;3.03;;;2.63;;
5813;SDS011;2933;52.302;8.134;2023-07-20T05:13:56;2.47;;;2.37;;
5813;SDS011;2933;52.302;8.134;2023-07-20T05:18:59;2.97;;;2.77;;
5813;SDS011;2933;52.302;8.134;2023-07-20T05:24:01;3.37;;;3.10;;
5813;SDS011;2933;52.302;8.134;2023-07-20T05:29:02;3.57;;;3.37;;
5813;SDS011;2933;52.302;8.134;2023-07-20T05:34:05;3.57;;;3.37;;
5813;SDS011;2933;52.302;8.134;2023-07-20T05:39:06;3.70;;;3.40;;
5813;SDS011;2933;52.302;8.134;2023-07-20T05:44:08;4.97;;;3.07;;
5813;SDS011;2933;52.302;8.134;2023-07-20T05:49:11;3.40;;;3.10;;
5813;SDS011;2933;52.302;8.134;2023-07-20T05:54:12;3.60;;;3.40;;
5813;SDS011;2933;52.302;8.134;2023-07-20T05:59:14;3.00;;;2.87;;
5813;SDS011;2933;52.302;8.134;2023-07-20T06:04:17;3.77;;;3.47;;
5813;SDS011;2933;52.302;8.134;2023-07-20T06:09:19;5.53;;;2.93;;
5813;SDS011;2933;52.302;8.134;2023-07-20T06:14:20;5.13;;;3.23;;
5813;SDS011;2933;52.302;8.134;2023-07-20T06:19:23;4.40;;;3.00;;
5813;SDS011;2933;52.302;8.134;2023-07-20T06:24:24;2.50;;;2.40;;
5813;SDS011;2933;52.302;8.134;2023-07-20T06:29:26;2.73;;;2.53;;
5813;SDS011;2933;52.302;8.134;2023-07-20T06:34:29;2.10;;;2.00;;
5813;SDS011;2933;52.302;8.134;2023-07-20T06:39:30;2.30;;;2.20;;
5813;SDS011;2933;52.302;8.134;2023-07-20T06:44:32;2.97;;;2.30;;
5813;SDS011;2933;52.302;8.134;2023-07-20T06:49:35;2.03;;;1.93;;
5813;SDS011;2933;52.302;8.134;2023-07-20T06:54:36;2.07;;;1.70;;
5813;SDS011;2933;52.302;8.134;2023-07-20T06:59:38;2.47;;;2.00;;
5813;SDS011;2933;52.302;8.134;2023-07-20T07:04:40;1.83;;;1.73;;
5813;SDS011;2933;52.302;8.134;2023-07-20T07:09:42;2.27;;;1.97;;
5813;SDS011;2933;52.302;8.134;2023-07-20T07:14:44;3.83;;;1.40;;
5813;SDS011;2933;52.302;8.134;2023-07-20T07:19:47;1.70;;;1.60;;
5813;SDS011;2933;52.302;8.134;2023-07-20T07:24:48;1.47;;;1.40;;
5813;SDS011;2933;52.302;8.134;2023-07-20T07:29:50;1.60;;;1.60;;
5813;SDS011;2933;52.302;8.134;2023-07-20T07:34:53;1.60;;;1.50;;
5813;SDS011;2933;52.302;8.134;2023-07-20T07:39:55;2.03;;;1.33;;
5813;SDS011;2933;52.302;8.134;2023-07-20T07:44:57;1.67;;;1.47;;
5813;SDS011;2933;52.302;8.134;2023-07-20T07:50:00;1.60;;;1.10;;
5813;SDS011;2933;52.302;8.134;2023-07-20T07:55:02;2.23;;;1.30;;
5813;SDS011;2933;52.302;8.134;2023-07-20T08:00:04;2.20;;;1.33;;
5813;SDS011;2933;52.302;8.134;2023-07-20T08:05:12;0.80;;;0.80;;
5813;SDS011;2933;52.302;8.134;2023-07-20T08:10:13;0.77;;;0.77;;
5813;SDS011;2933;52.302;8.134;2023-07-20T08:15:15;2.20;;;0.90;;
5813;SDS011;2933;52.302;8.134;2023-07-20T08:20:18;1.40;;;1.10;;
5813;SDS011;2933;52.302;8.134;2023-07-20T08:25:23;0.93;;;0.93;;
5813;SDS011;2933;52.302;8.134;2023-07-20T08:30:25;1.70;;;0.80;;
5813;SDS011;2933;52.302;8.134;2023-07-20T08:35:27;0.73;;;0.73;;
5813;SDS011;2933;52.302;8.134;2023-07-20T08:40:29;0.80;;;0.80;;
5813;SDS011;2933;52.302;8.134;2023-07-20T08:45:32;1.47;;;0.70;;
5813;SDS011;2933;52.302;8.134;2023-07-20T08:50:36;2.97;;;0.77;;
5813;SDS011;2933;52.302;8.134;2023-07-20T08:55:39;0.80;;;0.80;;
5813;SDS011;2933;52.302;8.134;2023-07-20T09:00:42;0.70;;;0.50;;
5813;SDS011;2933;52.302;8.134;2023-07-20T09:05:45;0.70;;;0.70;;
5813;SDS011;2933;52.302;8.134;2023-07-20T09:10:47;2.53;;;0.90;;
5813;SDS011;2933;52.302;8.134;2023-07-20T09:15:53;0.70;;;0.70;;
5813;SDS011;2933;52.302;8.134;2023-07-20T09:20:59;0.70;;;0.70;;
5813;SDS011;2933;52.302;8.134;2023-07-20T09:26:09;0.90;;;0.90;;
5813;SDS011;2933;52.302;8.134;2023-07-20T09:31:15;0.80;;;0.73;;
5813;SDS011;2933;52.302;8.134;2023-07-20T09:36:18;3.40;;;1.00;;
5813;SDS011;2933;52.302;8.134;2023-07-20T09:41:21;1.10;;;0.57;;
5813;SDS011;2933;52.302;8.134;2023-07-20T09:46:22;0.60;;;0.60;;
5813;SDS011;2933;52.302;8.134;2023-07-20T09:51:25;0.60;;;0.60;;
5813;SDS011;2933;52.302;8.134;2023-07-20T09:56:30;0.93;;;0.70;;
5813;SDS011;2933;52.302;8.134;2023-07-20T10:01:34;0.80;;;0.80;;
5813;SDS011;2933;52.302;8.134;2023-07-20T10:06:37;1.23;;;0.60;;
5813;SDS011;2933;52.302;8.134;2023-07-20T10:11:49;0.60;;;0.60;;
5813;SDS011;2933;52.302;8.134;2023-07-20T10:16:51;2.93;;;0.50;;
5813;SDS011;2933;52.302;8.134;2023-07-20T10:22:00;1.47;;;0.60;;
5813;SDS011;2933;52.302;8.134;2023-07-20T10:27:05;1.90;;;0.63;;
5813;SDS011;2933;52.302;8.134;2023-07-20T10:32:07;2.40;;;0.80;;
5813;SDS011;2933;52.302;8.134;2023-07-20T10:37:11;2.33;;;0.70;;
5813;SDS011;2933;52.302;8.134;2023-07-20T10:42:49;0.70;;;0.70;;
5813;SDS011;2933;52.302;8.134;2023-07-20T10:47:51;1.00;;;1.00;;
5813;SDS011;2933;52.302;8.134;2023-07-20T10:53:11;1.27;;;1.20;;
5813;SDS011;2933;52.302;8.134;2023-07-20T10:58:14;1.47;;;1.30;;
5813;SDS011;2933;52.302;8.134;2023-07-20T11:03:26;1.53;;;1.53;;
5813;SDS011;2933;52.302;8.134;2023-07-20T11:08:41;1.63;;;1.63;;
5813;SDS011;2933;52.302;8.134;2023-07-20T11:13:53;1.77;;;1.67;;
5813;SDS011;2933;52.302;8.134;2023-07-20T11:18:55;1.90;;;1.80;;
5813;SDS011;2933;52.302;8.134;2023-07-20T11:24:00;1.40;;;1.40;;
5813;SDS011;2933;52.302;8.134;2023-07-20T11:29:04;1.80;;;1.70;;
5813;SDS011;2933;52.302;8.134;2023-07-20T11:34:05;1.00;;;1.00;;
5813;SDS011;2933;52.302;8.134;2023-07-20T11:39:10;1.13;;;1.13;;
5813;SDS011;2933;52.302;8.134;2023-07-20T11:44:13;3.70;;;1.50;;
5813;SDS011;2933;52.302;8.134;2023-07-20T11:49:15;1.90;;;1.23;;
5813;SDS011;2933;52.302;8.134;2023-07-20T11:54:17;1.33;;;0.93;;
5813;SDS011;2933;52.302;8.134;2023-07-20T11:59:19;0.97;;;0.80;;
5813;SDS011;2933;52.302;8.134;2023-07-20T12:04:22;0.60;;;0.60;;
5813;SDS011;2933;52.302;8.134;2023-07-20T12:09:25;0.93;;;0.63;;
5813;SDS011;2933;52.302;8.134;2023-07-20T12:14:27;2.80;;;0.60;;
5813;SDS011;2933;52.302;8.134;2023-07-20T12:19:28;0.53;;;0.53;;
5813;SDS011;2933;52.302;8.134;2023-07-20T12:24:31;1.73;;;0.70;;
5813;SDS011;2933;52.302;8.134;2023-07-20T12:29:33;0.70;;;0.60;;
5813;SDS011;2933;52.302;8.134;2023-07-20T12:34:36;0.50;;;0.50;;
5813;SDS011;2933;52.302;8.134;2023-07-20T12:39:40;1.70;;;0.63;;
5813;SDS011;2933;52.302;8.134;2023-07-20T12:44:44;3.43;;;0.70;;
5813;SDS011;2933;52.302;8.134;2023-07-20T12:49:45;0.60;;;0.60;;
5813;SDS011;2933;52.302;8.134;2023-07-20T12:54:48;1.57;;;0.93;;
5813;SDS011;2933;52.302;8.134;2023-07-20T12:59:50;0.50;;;0.50;;
5813;SDS011;2933;52.302;8.134;2023-07-20T13:04:52;1.90;;;0.77;;
5813;SDS011;2933;52.302;8.134;2023-07-20T13:09:54;0.50;;;0.50;;
5813;SDS011;2933;52.302;8.134;2023-07-20T13:14:56;0.87;;;0.70;;
5813;SDS011;2933;52.302;8.134;2023-07-20T13:20:00;0.60;;;0.60;;
5813;SDS011;2933;52.302;8.134;2023-07-20T13:25:06;1.00;;;0.63;;
5813;SDS011;2933;52.302;8.134;2023-07-20T13:30:10;1.43;;;0.70;;
5813;SDS011;2933;52.302;8.134;2023-07-20T13:35:16;0.70;;;0.70;;
5813;SDS011;2933;52.302;8.134;2023-07-20T13:40:19;1.77;;;0.70;;
5813;SDS011;2933;52.302;8.134;2023-07-20T13:45:22;0.53;;;0.53;;
5813;SDS011;2933;52.302;8.134;2023-07-20T13:50:25;1.47;;;0.60;;
5813;SDS011;2933;52.302;8.134;2023-07-20T13:55:29;0.67;;;0.67;;
5813;SDS011;2933;52.302;8.134;2023-07-20T14:00:33;1.43;;;0.50;;
5813;SDS011;2933;52.302;8.134;2023-07-20T14:05:35;0.40;;;0.40;;
5813;SDS011;2933;52.302;8.134;2023-07-20T14:10:38;0.63;;;0.63;;
5813;SDS011;2933;52.302;8.134;2023-07-20T14:15:39;0.40;;;0.40;;
5813;SDS011;2933;52.302;8.134;2023-07-20T14:20:41;0.53;;;0.53;;
5813;SDS011;2933;52.302;8.134;2023-07-20T14:25:45;0.60;;;0.40;;
5813;SDS011;2933;52.302;8.134;2023-07-20T14:30:47;1.47;;;0.50;;
5813;SDS011;2933;52.302;8.134;2023-07-20T14:35:48;0.40;;;0.40;;
5813;SDS011;2933;52.302;8.134;2023-07-20T14:40:51;0.50;;;0.50;;
5813;SDS011;2933;52.302;8.134;2023-07-20T14:45:52;0.70;;;0.60;;
5813;SDS011;2933;52.302;8.134;2023-07-20T14:50:54;0.40;;;0.40;;
5813;SDS011;2933;52.302;8.134;2023-07-20T14:56:01;0.50;;;0.50;;
5813;SDS011;2933;52.302;8.134;2023-07-20T15:01:02;0.53;;;0.53;;
5813;SDS011;2933;52.302;8.134;2023-07-20T15:06:04;0.60;;;0.60;;
5813;SDS011;2933;52.302;8.134;2023-07-20T15:11:12;0.40;;;0.40;;
5813;SDS011;2933;52.302;8.134;2023-07-20T15:16:14;0.77;;;0.50;;
5813;SDS011;2933;52.302;8.134;2023-07-20T15:21:15;0.80;;;0.60;;
5813;SDS011;2933;52.302;8.134;2023-07-20T15:26:18;0.50;;;0.50;;
5813;SDS011;2933;52.302;8.134;2023-07-20T15:31:21;0.40;;;0.40;;
5813;SDS011;2933;52.302;8.134;2023-07-20T15:36:23;0.47;;;0.47;;
5813;SDS011;2933;52.302;8.134;2023-07-20T15:41:26;1.17;;;0.50;;
5813;SDS011;2933;52.302;8.134;2023-07-20T15:51:45;0.40;;;0.40;;
5813;SDS011;2933;52.302;8.134;2023-07-20T15:56:48;0.60;;;0.40;;
5813;SDS011;2933;52.302;8.134;2023-07-20T16:01:50;0.50;;;0.50;;
5813;SDS011;2933;52.302;8.134;2023-07-20T16:06:51;0.50;;;0.50;;
5813;SDS011;2933;52.302;8.134;2023-07-20T16:11:54;0.80;;;0.60;;
5813;SDS011;2933;52.302;8.134;2023-07-20T16:16:56;0.77;;;0.50;;
5813;SDS011;2933;52.302;8.134;2023-07-20T16:21:57;0.53;;;0.50;;
5813;SDS011;2933;52.302;8.134;2023-07-20T16:27:00;0.60;;;0.60;;
5813;SDS011;2933;52.302;8.134;2023-07-20T16:32:02;1.10;;;0.67;;
5813;SDS011;2933;52.302;8.134;2023-07-20T16:37:04;1.00;;;0.50;;
5813;SDS011;2933;52.302;8.134;2023-07-20T16:42:07;0.60;;;0.60;;
5813;SDS011;2933;52.302;8.134;2023-07-20T16:47:08;0.60;;;0.60;;
5813;SDS011;2933;52.302;8.134;2023-07-20T16:52:10;0.77;;;0.77;;
5813;SDS011;2933;52.302;8.134;2023-07-20T16:57:13;0.60;;;0.60;;
5813;SDS011;2933;52.302;8.134;2023-07-20T17:02:15;0.50;;;0.50;;
5813;SDS011;2933;52.302;8.134;2023-07-20T17:07:17;1.53;;;0.80;;
5813;SDS011;2933;52.302;8.134;2023-07-20T17:12:20;0.80;;;0.70;;
5813;SDS011;2933;52.302;8.134;2023-07-20T17:17:22;1.50;;;0.70;;
5813;SDS011;2933;52.302;8.134;2023-07-20T17:22:23;1.37;;;0.60;;
5813;SDS011;2933;52.302;8.134;2023-07-20T17:27:26;0.70;;;0.70;;
5813;SDS011;2933;52.302;8.134;2023-07-20T17:32:28;2.30;;;0.70;;
5813;SDS011;2933;52.302;8.134;2023-07-20T17:37:32;1.53;;;0.70;;
5813;SDS011;2933;52.302;8.134;2023-07-20T17:42:35;1.73;;;0.80;;
5813;SDS011;2933;52.302;8.134;2023-07-20T17:47:37;2.20;;;0.50;;
5813;SDS011;2933;52.302;8.134;2023-07-20T17:52:39;0.80;;;0.63;;
5813;SDS011;2933;52.302;8.134;2023-07-20T17:57:42;0.60;;;0.60;;
5813;SDS011;2933;52.302;8.134;2023-07-20T18:02:43;0.60;;;0.60;;
5813;SDS011;2933;52.302;8.134;2023-07-20T18:07:45;0.80;;;0.80;;
5813;SDS011;2933;52.302;8.134;2023-07-20T18:12:48;0.70;;;0.70;;
5813;SDS011;2933;52.302;8.134;2023-07-20T18:17:50;0.50;;;0.50;;
5813;SDS011;2933;52.302;8.134;2023-07-20T18:22:51;0.70;;;0.70;;
5813;SDS011;2933;52.302;8.134;2023-07-20T18:27:55;1.43;;;0.50;;
5813;SDS011;2933;52.302;8.134;2023-07-20T18:32:56;0.60;;;0.60;;
5813;SDS011;2933;52.302;8.134;2023-07-20T18:37:58;0.60;;;0.50;;
5813;SDS011;2933;52.302;8.134;2023-07-20T18:43:01;0.70;;;0.70;;
5813;SDS011;2933;52.302;8.134;2023-07-20T18:48:02;3.67;;;0.70;;
5813;SDS011;2933;52.302;8.134;2023-07-20T18:53:04;1.80;;;0.70;;
5813;SDS011;2933;52.302;8.134;2023-07-20T18:58:07;0.50;;;0.50;;
5813;SDS011;2933;52.302;8.134;2023-07-20T19:03:08;0.97;;;0.70;;
5813;SDS011;2933;52.302;8.134;2023-07-20T19:08:10;0.57;;;0.57;;
5813;SDS011;2933;52.302;8.134;2023-07-20T19:13:14;0.60;;;0.60;;
5813;SDS011;2933;52.302;8.134;2023-07-20T19:18:15;0.70;;;0.60;;
5813;SDS011;2933;52.302;8.134;2023-07-20T19:23:17;0.67;;;0.67;;
5813;SDS011;2933;52.302;8.134;2023-07-20T19:28:20;1.43;;;0.80;;
5813;SDS011;2933;52.302;8.134;2023-07-20T19:33:22;2.33;;;0.90;;
5813;SDS011;2933;52.302;8.134;2023-07-20T19:38:24;1.73;;;0.93;;
5813;SDS011;2933;52.302;8.134;2023-07-20T19:43:27;1.37;;;0.90;;
5813;SDS011;2933;52.302;8.134;2023-07-20T19:48:29;1.03;;;0.77;;
5813;SDS011;2933;52.302;8.134;2023-07-20T19:53:30;2.73;;;0.93;;
5813;SDS011;2933;52.302;8.134;2023-07-20T19:58:33;0.97;;;0.87;;
5813;SDS011;2933;52.302;8.134;2023-07-20T20:03:35;0.93;;;0.93;;
5813;SDS011;2933;52.302;8.134;2023-07-20T20:08:37;1.00;;;1.00;;
5813;SDS011;2933;52.302;8.134;2023-07-20T20:13:40;2.83;;;1.00;;
5813;SDS011;2933;52.302;8.134;2023-07-20T20:18:41;1.17;;;1.13;;
5813;SDS011;2933;52.302;8.134;2023-07-20T20:23:43;0.90;;;0.90;;
5813;SDS011;2933;52.302;8.134;2023-07-20T20:28:46;1.30;;;1.30;;
5813;SDS011;2933;52.302;8.134;2023-07-20T20:33:48;1.40;;;1.30;;
5813;SDS011;2933;52.302;8.134;2023-07-20T20:38:49;6.03;;;1.17;;
5813;SDS011;2933;52.302;8.134;2023-07-20T20:43:52;1.43;;;1.33;;
5813;SDS011;2933;52.302;8.134;2023-07-20T20:48:54;2.40;;;1.17;;
5813;SDS011;2933;52.302;8.134;2023-07-20T20:53:55;2.43;;;1.20;;
5813;SDS011;2933;52.302;8.134;2023-07-20T20:58:58;2.20;;;1.20;;
5813;SDS011;2933;52.302;8.134;2023-07-20T21:04:00;2.90;;;1.27;;
5813;SDS011;2933;52.302;8.134;2023-07-20T21:09:01;1.60;;;1.50;;
5813;SDS011;2933;52.302;8.134;2023-07-20T21:14:05;1.20;;;1.10;;
5813;SDS011;2933;52.302;8.134;2023-07-20T21:19:06;0.90;;;0.90;;
5813;SDS011;2933;52.302;8.134;2023-07-20T21:24:08;2.13;;;1.40;;
5813;SDS011;2933;52.302;8.134;2023-07-20T21:29:11;2.80;;;1.20;;
5813;SDS011;2933;52.302;8.134;2023-07-20T21:34:13;1.50;;;1.10;;
5813;SDS011;2933;52.302;8.134;2023-07-20T21:39:14;1.20;;;1.10;;
5813;SDS011;2933;52.302;8.134;2023-07-20T21:44:17;1.77;;;1.23;;
5813;SDS011;2933;52.302;8.134;2023-07-20T21:49:19;1.50;;;1.40;;
5813;SDS011;2933;52.302;8.134;2023-07-20T21:54:20;1.40;;;1.30;;
5813;SDS011;2933;52.302;8.134;2023-07-20T21:59:23;3.53;;;1.37;;
5813;SDS011;2933;52.302;8.134;2023-07-20T22:04:25;1.20;;;1.10;;
5813;SDS011;2933;52.302;8.134;2023-07-20T22:09:27;1.90;;;1.40;;
5813;SDS011;2933;52.302;8.134;2023-07-20T22:14:30;1.50;;;1.37;;
5813;SDS011;2933;52.302;8.134;2023-07-20T22:19:32;1.90;;;1.30;;
5813;SDS011;2933;52.302;8.134;2023-07-20T22:24:34;2.50;;;1.43;;
5813;SDS011;2933;52.302;8.134;2023-07-20T22:29:37;1.33;;;1.23;;
5813;SDS011;2933;52.302;8.134;2023-07-20T22:34:39;2.13;;;1.20;;
5813;SDS011;2933;52.302;8.134;2023-07-20T22:39:40;1.33;;;1.23;;
5813;SDS011;2933;52.302;8.134;2023-07-20T22:44:43;2.17;;;1.33;;
5813;SDS011;2933;52.302;8.134;2023-07-20T22:49:45;1.93;;;1.47;;
5813;SDS011;2933;52.302;8.134;2023-07-20T22:54:46;4.03;;;1.93;;
5813;SDS011;2933;52.302;8.134;2023-07-20T22:59:49;3.83;;;1.67;;
5813;SDS011;2933;52.302;8.134;2023-07-20T23:04:51;1.60;;;1.50;;
5813;SDS011;2933;52.302;8.134;2023-07-20T23:09:53;1.60;;;1.50;;
5813;SDS011;2933;52.302;8.134;2023-07-20T23:14:56;1.67;;;1.30;;
5813;SDS011;2933;52.302;8.134;2023-07-20T23:19:57;2.00;;;1.80;;
5813;SDS011;2933;52.302;8.134;2023-07-20T23:24:59;4.30;;;2.30;;
5813;SDS011;2933;52.302;8.134;2023-07-20T23:30:02;4.10;;;1.77;;
5813;SDS011;2933;52.302;8.134;2023-07-20T23:35:04;3.93;;;1.67;;
5813;SDS011;2933;52.302;8.134;2023-07-20T23:40:07;2.27;;;1.60;;
5813;SDS011;2933;52.302;8.134;2023-07-20T23:45:15;2.47;;;1.67;;
5813;SDS011;2933;52.302;8.134;2023-07-20T23:50:17;2.23;;;2.10;;
5813;SDS011;2933;52.302;8.134;2023-07-20T23:55:19;1.90;;;1.80;;
